createdAt,value
2023-01-30T00:00:32.191Z,-0.58
2023-01-30T00:02:58.529Z,-0.66
2023-01-30T00:05:24.882Z,-0.60
2023-01-30T00:07:51.191Z,-0.39
2023-01-30T00:10:17.786Z,-0.48
2023-01-30T00:12:44.296Z,-0.62
2023-01-30T00:15:10.604Z,-0.64
2023-01-30T00:17:38.696Z,-0.57
2023-01-30T00:20:05.091Z,-0.53
2023-01-30T00:22:31.440Z,-0.43
2023-01-30T00:24:57.852Z,-0.49
2023-01-30T00:27:24.283Z,-0.37
2023-01-30T00:30:02.198Z,-0.40
2023-01-30T00:32:29.663Z,-0.44
2023-01-30T00:34:55.967Z,-0.37
2023-01-30T00:37:22.297Z,-0.36
2023-01-30T00:39:48.605Z,-0.24
2023-01-30T00:42:33.647Z,-0.13
2023-01-30T00:45:19.061Z,-0.29
2023-01-30T00:47:45.791Z,-0.23
2023-01-30T00:50:12.113Z,-0.39
2023-01-30T00:52:38.616Z,-0.43
2023-01-30T00:55:04.931Z,-0.34
2023-01-30T00:57:31.291Z,-0.16
2023-01-30T00:59:57.632Z,-0.07
2023-01-30T01:02:23.935Z,-0.34
2023-01-30T01:04:50.245Z,-0.21
2023-01-30T01:07:16.552Z,-0.15
2023-01-30T01:09:42.867Z,-0.15
2023-01-30T01:12:09.189Z,-0.34
2023-01-30T01:14:35.517Z,-0.22
2023-01-30T01:17:02.010Z,-0.13
2023-01-30T01:19:28.337Z,-0.11
2023-01-30T01:21:54.636Z,-0.02
2023-01-30T01:24:21.005Z,-0.12
2023-01-30T01:26:47.496Z,-0.15
2023-01-30T01:29:13.859Z,-0.13
2023-01-30T01:31:40.343Z,-0.09
2023-01-30T01:34:06.762Z,-0.07
2023-01-30T01:36:52.703Z,-0.06
2023-01-30T01:39:19.391Z,-0.05
2023-01-30T01:41:45.687Z,0.15
2023-01-30T01:44:12.057Z,0.23
2023-01-30T01:46:38.779Z,-0.03
2023-01-30T01:49:05.097Z,-0.04
2023-01-30T01:51:31.691Z,0.05
2023-01-30T01:53:58.023Z,0.03
2023-01-30T01:56:24.415Z,0.15
2023-01-30T01:58:50.776Z,-0.01
2023-01-30T02:01:17.161Z,0.00
2023-01-30T02:03:43.497Z,-0.07
2023-01-30T02:06:09.886Z,-0.06
2023-01-30T02:08:36.204Z,0.07
2023-01-30T02:11:02.537Z,-0.18
2023-01-30T02:13:28.840Z,0.02
2023-01-30T02:15:55.169Z,0.04
2023-01-30T02:18:21.525Z,0.10
2023-01-30T02:20:47.873Z,0.02
2023-01-30T02:23:14.189Z,-0.07
2023-01-30T02:25:40.523Z,0.04
2023-01-30T02:28:06.835Z,-0.01
2023-01-30T02:30:33.242Z,0.03
2023-01-30T02:32:59.623Z,0.08
2023-01-30T02:35:25.938Z,0.15
2023-01-30T02:37:52.299Z,0.14
2023-01-30T02:40:18.610Z,0.24
2023-01-30T02:42:44.926Z,0.23
2023-01-30T02:45:11.237Z,0.29
2023-01-30T02:47:37.557Z,0.25
2023-01-30T02:50:03.966Z,0.40
2023-01-30T02:52:30.274Z,0.45
2023-01-30T02:54:56.584Z,0.44
2023-01-30T02:57:22.892Z,0.47
2023-01-30T02:59:49.578Z,0.50
2023-01-30T03:02:15.923Z,0.53
2023-01-30T03:04:42.257Z,0.60
2023-01-30T03:07:08.570Z,0.68
2023-01-30T03:09:34.881Z,0.76
2023-01-30T03:12:01.277Z,0.85
2023-01-30T03:14:27.789Z,0.92
2023-01-30T03:16:54.084Z,0.91
2023-01-30T03:19:20.594Z,0.96
2023-01-30T03:21:46.958Z,1.08
2023-01-30T03:24:13.316Z,0.97
2023-01-30T03:26:39.655Z,0.98
2023-01-30T03:29:05.979Z,1.05
2023-01-30T03:31:32.416Z,1.00
2023-01-30T03:33:58.755Z,1.12
2023-01-30T03:36:25.081Z,1.12
2023-01-30T03:38:52.196Z,1.08
2023-01-30T03:41:18.494Z,1.11
2023-01-30T03:43:44.891Z,1.18
2023-01-30T03:46:11.268Z,1.08
2023-01-30T03:48:37.592Z,1.11
2023-01-30T03:51:03.919Z,1.12
2023-01-30T03:53:30.235Z,1.19
2023-01-30T03:55:56.549Z,1.09
2023-01-30T03:58:22.879Z,1.12
2023-01-30T04:00:49.213Z,1.27
2023-01-30T04:03:15.945Z,1.31
2023-01-30T04:05:42.282Z,1.32
2023-01-30T04:08:08.612Z,1.32
2023-01-30T04:10:34.908Z,1.41
2023-01-30T04:13:01.243Z,1.37
2023-01-30T04:15:27.566Z,1.44
2023-01-30T04:17:53.874Z,1.44
2023-01-30T04:20:20.583Z,1.46
2023-01-30T04:22:46.940Z,1.42
2023-01-30T04:25:13.255Z,1.61
2023-01-30T04:27:39.630Z,1.50
2023-01-30T04:30:05.937Z,1.57
2023-01-30T04:32:32.273Z,1.52
2023-01-30T04:34:58.589Z,1.61
2023-01-30T04:37:24.931Z,1.59
2023-01-30T04:39:51.257Z,1.60
2023-01-30T04:42:17.559Z,1.62
2023-01-30T04:44:43.862Z,1.68
2023-01-30T04:47:10.203Z,1.77
2023-01-30T04:49:36.560Z,1.76
2023-01-30T04:52:02.913Z,1.81
2023-01-30T04:54:29.204Z,1.84
2023-01-30T04:56:55.521Z,1.84
2023-01-30T04:59:21.816Z,1.86
2023-01-30T05:01:48.267Z,1.92
2023-01-30T05:04:14.628Z,1.96
2023-01-30T05:06:41.015Z,2.02
2023-01-30T05:09:07.384Z,2.04
2023-01-30T05:11:33.766Z,2.02
2023-01-30T05:14:00.143Z,2.08
2023-01-30T05:16:26.555Z,2.11
2023-01-30T05:18:52.870Z,2.06
2023-01-30T05:21:19.190Z,2.15
2023-01-30T05:23:45.522Z,2.19
2023-01-30T05:26:11.883Z,2.17
2023-01-30T05:28:38.338Z,2.17
2023-01-30T05:31:04.767Z,2.27
2023-01-30T05:33:31.237Z,2.20
2023-01-30T05:35:57.646Z,2.29
2023-01-30T05:38:24.004Z,2.37
2023-01-30T05:40:50.309Z,2.37
2023-01-30T05:43:16.613Z,2.44
2023-01-30T05:45:42.949Z,2.31
2023-01-30T05:48:09.261Z,2.36
2023-01-30T05:50:35.594Z,2.41
2023-01-30T05:53:01.993Z,2.34
2023-01-30T05:55:28.320Z,2.38
2023-01-30T05:57:54.642Z,2.42
2023-01-30T06:00:20.970Z,2.42
2023-01-30T06:02:47.341Z,2.37
2023-01-30T06:05:13.682Z,2.40
2023-01-30T06:07:40.019Z,2.51
2023-01-30T06:10:06.371Z,2.56
2023-01-30T06:12:32.744Z,2.62
2023-01-30T06:14:59.142Z,2.61
2023-01-30T06:17:25.487Z,2.60
2023-01-30T06:19:51.852Z,2.69
2023-01-30T06:22:18.169Z,2.69
2023-01-30T06:24:44.543Z,2.69
2023-01-30T06:27:10.965Z,2.62
2023-01-30T06:29:37.477Z,2.63
2023-01-30T06:32:03.802Z,2.60
2023-01-30T06:34:30.123Z,2.61
2023-01-30T06:36:56.441Z,2.64
2023-01-30T06:39:22.868Z,2.65
2023-01-30T06:41:49.176Z,2.63
2023-01-30T06:44:15.500Z,2.64
2023-01-30T06:46:41.813Z,2.62
2023-01-30T06:49:08.174Z,2.60
2023-01-30T06:51:34.492Z,2.62
2023-01-30T06:54:00.869Z,2.66
2023-01-30T06:56:27.207Z,2.61
2023-01-30T06:58:53.605Z,2.60
2023-01-30T07:01:21.316Z,2.61
2023-01-30T07:03:48.654Z,2.65
2023-01-30T07:06:15.001Z,2.46
2023-01-30T07:08:41.341Z,2.42
2023-01-30T07:11:07.699Z,2.29
2023-01-30T07:13:34.047Z,2.36
2023-01-30T07:16:00.419Z,2.17
2023-01-30T07:18:26.716Z,2.14
2023-01-30T07:20:53.035Z,2.13
2023-01-30T07:23:19.390Z,2.20
2023-01-30T07:25:45.983Z,2.17
2023-01-30T07:28:12.294Z,2.27
2023-01-30T07:30:38.728Z,2.33
2023-01-30T07:33:05.067Z,2.36
2023-01-30T07:35:31.392Z,2.30
2023-01-30T07:37:57.747Z,2.43
2023-01-30T07:40:24.054Z,2.45
2023-01-30T07:42:50.366Z,2.47
2023-01-30T07:45:17.112Z,2.58
2023-01-30T07:47:43.628Z,2.63
2023-01-30T07:50:09.955Z,2.67
2023-01-30T07:52:36.395Z,2.76
2023-01-30T07:55:02.719Z,2.82
2023-01-30T07:57:29.023Z,2.86
2023-01-30T07:59:55.369Z,2.92
2023-01-30T08:02:21.773Z,2.91
2023-01-30T08:04:48.149Z,2.94
2023-01-30T08:07:14.486Z,2.88
2023-01-30T08:09:40.844Z,2.95
2023-01-30T08:12:07.213Z,3.02
2023-01-30T08:14:33.538Z,2.97
2023-01-30T08:16:59.899Z,3.01
2023-01-30T08:19:26.213Z,3.08
2023-01-30T08:21:52.549Z,2.95
2023-01-30T08:24:18.867Z,2.92
2023-01-30T08:26:45.276Z,2.84
2023-01-30T08:29:11.660Z,2.74
2023-01-30T08:31:38.056Z,2.61
2023-01-30T08:34:04.517Z,2.60
2023-01-30T08:36:30.857Z,2.67
2023-01-30T08:38:57.283Z,2.60
2023-01-30T08:41:23.635Z,2.74
2023-01-30T08:43:49.963Z,2.92
2023-01-30T08:46:17.583Z,2.87
2023-01-30T08:48:49.960Z,2.90
2023-01-30T08:51:16.758Z,2.93
2023-01-30T08:53:43.115Z,3.01
2023-01-30T08:56:09.536Z,3.05
2023-01-30T08:58:35.997Z,3.21
2023-01-30T09:01:02.386Z,3.39
2023-01-30T09:03:28.798Z,3.40
2023-01-30T09:05:55.531Z,3.41
2023-01-30T09:08:21.907Z,3.55
2023-01-30T09:10:48.236Z,3.50
2023-01-30T09:13:14.563Z,3.43
2023-01-30T09:15:40.881Z,3.47
2023-01-30T09:18:07.203Z,3.34
2023-01-30T09:20:33.549Z,3.42
2023-01-30T09:22:59.927Z,3.48
2023-01-30T09:25:26.261Z,3.61
2023-01-30T09:27:52.865Z,3.60
2023-01-30T09:30:19.549Z,3.75
2023-01-30T09:32:46.200Z,3.83
2023-01-30T09:35:12.665Z,3.69
2023-01-30T09:37:38.976Z,3.70
2023-01-30T09:40:05.402Z,3.77
2023-01-30T09:42:31.825Z,3.78
2023-01-30T09:44:58.401Z,3.76
2023-01-30T09:47:24.720Z,3.84
2023-01-30T09:49:51.046Z,3.70
2023-01-30T09:52:19.330Z,3.71
2023-01-30T09:54:45.992Z,3.90
2023-01-30T09:57:21.724Z,3.86
2023-01-30T09:59:48.796Z,3.96
2023-01-30T10:02:15.130Z,4.07
2023-01-30T10:04:51.705Z,4.17
2023-01-30T10:07:25.625Z,4.25
2023-01-30T10:09:52.009Z,4.76
2023-01-30T10:12:18.333Z,4.74
2023-01-30T10:14:44.682Z,4.81
2023-01-30T10:17:11.261Z,5.10
2023-01-30T10:19:37.692Z,4.62
2023-01-30T10:22:04.005Z,4.50
2023-01-30T10:24:30.311Z,4.62
2023-01-30T10:26:56.849Z,4.90
2023-01-30T10:29:23.219Z,5.08
2023-01-30T10:31:49.636Z,4.88
2023-01-30T10:34:16.008Z,4.63
2023-01-30T10:36:42.370Z,4.71
2023-01-30T10:39:08.779Z,4.80
2023-01-30T10:41:35.146Z,4.81
2023-01-30T10:44:01.466Z,4.76
2023-01-30T10:46:27.961Z,4.71
2023-01-30T10:48:54.401Z,4.71
2023-01-30T10:51:22.615Z,4.78
2023-01-30T10:53:48.979Z,4.84
2023-01-30T10:56:15.304Z,4.74
2023-01-30T10:58:41.847Z,4.50
2023-01-30T11:01:08.182Z,4.43
2023-01-30T11:03:34.552Z,4.32
2023-01-30T11:06:00.946Z,4.37
2023-01-30T11:08:27.261Z,4.35
2023-01-30T11:10:53.599Z,4.34
2023-01-30T11:13:20.093Z,4.24
2023-01-30T11:15:46.433Z,4.32
2023-01-30T11:18:49.781Z,4.41
2023-01-30T11:20:59.081Z,4.33
2023-01-30T11:23:25.442Z,4.51
2023-01-30T11:26:05.532Z,4.43
2023-01-30T11:28:36.771Z,4.34
2023-01-30T11:31:03.211Z,4.23
2023-01-30T11:33:29.759Z,3.96
2023-01-30T11:35:56.079Z,3.87
2023-01-30T11:38:22.470Z,4.02
2023-01-30T11:40:48.879Z,3.77
2023-01-30T11:43:15.225Z,3.89
2023-01-30T11:45:41.651Z,3.97
2023-01-30T11:48:10.409Z,3.97
2023-01-30T11:50:43.930Z,3.78
2023-01-30T11:53:13.554Z,3.85
2023-01-30T11:55:41.760Z,3.84
2023-01-30T11:58:09.474Z,3.81
2023-01-30T12:00:35.811Z,3.79
2023-01-30T12:03:02.208Z,3.92
2023-01-30T12:05:28.562Z,3.93
2023-01-30T12:07:54.950Z,3.82
2023-01-30T12:10:21.264Z,3.93
2023-01-30T12:12:47.607Z,3.87
2023-01-30T12:15:13.941Z,3.94
2023-01-30T12:17:40.298Z,4.05
2023-01-30T12:20:06.660Z,3.91
2023-01-30T12:22:33.024Z,3.97
2023-01-30T12:24:59.396Z,4.02
2023-01-30T12:27:25.769Z,4.10
2023-01-30T12:29:52.172Z,4.39
2023-01-30T12:32:18.468Z,4.72
2023-01-30T12:34:45.723Z,4.92
2023-01-30T12:37:12.039Z,5.27
2023-01-30T12:39:38.394Z,5.32
2023-01-30T12:42:04.701Z,4.83
2023-01-30T12:44:31.116Z,4.71
2023-01-30T12:46:57.510Z,4.70
2023-01-30T12:49:23.813Z,4.58
2023-01-30T12:51:50.153Z,4.78
2023-01-30T12:54:16.485Z,5.09
2023-01-30T12:56:42.814Z,5.21
2023-01-30T12:59:09.139Z,5.09
2023-01-30T13:01:35.623Z,4.52
2023-01-30T13:04:01.966Z,4.72
2023-01-30T13:06:28.327Z,4.57
2023-01-30T13:08:54.647Z,4.46
2023-01-30T13:11:20.978Z,4.36
2023-01-30T13:13:47.384Z,4.33
2023-01-30T13:16:13.788Z,4.36
2023-01-30T13:18:40.102Z,4.42
2023-01-30T13:21:06.431Z,4.51
2023-01-30T13:23:32.808Z,4.52
2023-01-30T13:25:59.309Z,4.55
2023-01-30T13:28:26.098Z,4.78
2023-01-30T13:30:52.613Z,4.99
2023-01-30T13:33:18.947Z,4.90
2023-01-30T13:35:45.307Z,5.07
2023-01-30T13:38:11.642Z,5.16
2023-01-30T13:40:38.627Z,5.15
2023-01-30T13:43:07.255Z,5.12
2023-01-30T13:45:33.854Z,5.03
2023-01-30T13:48:02.031Z,4.88
2023-01-30T13:50:28.411Z,4.87
2023-01-30T13:52:54.791Z,4.97
2023-01-30T13:55:21.178Z,5.05
2023-01-30T13:57:47.610Z,4.98
2023-01-30T14:00:13.991Z,4.90
2023-01-30T14:02:40.304Z,4.99
2023-01-30T14:05:06.672Z,5.09
2023-01-30T14:07:33.066Z,5.15
2023-01-30T14:09:59.390Z,5.17
2023-01-30T14:12:26.149Z,5.00
2023-01-30T14:14:53.468Z,5.26
2023-01-30T14:17:19.815Z,5.27
2023-01-30T14:19:46.199Z,5.08
2023-01-30T14:22:12.563Z,5.29
2023-01-30T14:24:38.910Z,5.14
2023-01-30T14:27:05.346Z,5.07
2023-01-30T14:29:31.660Z,5.04
2023-01-30T14:31:58.242Z,5.02
2023-01-30T14:34:24.655Z,4.90
2023-01-30T14:36:51.003Z,4.81
2023-01-30T14:39:17.381Z,4.69
2023-01-30T14:41:43.743Z,4.70
2023-01-30T14:44:10.094Z,4.61
2023-01-30T14:46:36.458Z,4.61
2023-01-30T14:49:05.351Z,4.43
2023-01-30T14:51:31.783Z,4.51
2023-01-30T14:53:58.125Z,4.42
2023-01-30T14:56:24.430Z,4.36
2023-01-30T14:58:50.818Z,4.41
2023-01-30T15:01:17.220Z,4.48
2023-01-30T15:03:43.592Z,4.38
2023-01-30T15:06:09.910Z,4.33
2023-01-30T15:08:36.232Z,4.44
2023-01-30T15:11:02.557Z,4.49
2023-01-30T15:13:28.880Z,4.42
2023-01-30T15:15:55.228Z,4.42
2023-01-30T15:18:21.582Z,4.37
2023-01-30T15:20:47.901Z,4.36
2023-01-30T15:23:14.226Z,4.30
2023-01-30T15:25:40.647Z,4.22
2023-01-30T15:28:07.082Z,4.20
2023-01-30T15:30:34.994Z,4.19
2023-01-30T15:33:01.371Z,4.07
2023-01-30T15:35:27.797Z,3.96
2023-01-30T15:37:54.189Z,3.99
2023-01-30T15:40:21.228Z,3.99
2023-01-30T15:42:47.814Z,4.03
2023-01-30T15:45:14.200Z,3.89
2023-01-30T15:47:40.994Z,3.65
2023-01-30T15:50:07.379Z,3.58
2023-01-30T15:52:33.703Z,3.54
2023-01-30T15:55:00.020Z,3.36
2023-01-30T15:57:26.413Z,3.23
2023-01-30T15:59:52.718Z,3.13
2023-01-30T16:02:19.063Z,2.97
2023-01-30T16:04:45.486Z,3.00
2023-01-30T16:07:11.790Z,2.95
2023-01-30T16:09:38.099Z,2.92
2023-01-30T16:12:04.413Z,2.98
2023-01-30T16:14:30.731Z,2.96
2023-01-30T16:16:57.045Z,3.07
2023-01-30T16:19:23.393Z,3.12
2023-01-30T16:21:49.728Z,3.19
2023-01-30T16:24:16.122Z,3.20
2023-01-30T16:26:42.474Z,3.19
2023-01-30T16:29:08.897Z,3.32
2023-01-30T16:31:35.355Z,3.23
2023-01-30T16:34:03.334Z,3.30
2023-01-30T16:36:30.285Z,3.30
2023-01-30T16:38:56.694Z,3.31
2023-01-30T16:41:23.035Z,3.37
2023-01-30T16:43:49.340Z,3.37
2023-01-30T16:46:15.818Z,3.47
2023-01-30T16:48:42.177Z,3.60
2023-01-30T16:51:10.730Z,3.69
2023-01-30T16:53:37.045Z,3.74
2023-01-30T16:56:04.145Z,3.83
2023-01-30T16:58:32.655Z,3.87
2023-01-30T17:00:59.079Z,3.95
2023-01-30T17:03:25.507Z,4.00
2023-01-30T17:05:51.841Z,4.04
2023-01-30T17:08:18.153Z,3.99
2023-01-30T17:10:45.008Z,4.10
2023-01-30T17:13:11.321Z,3.93
2023-01-30T17:15:37.642Z,3.90
2023-01-30T17:18:04.176Z,3.98
2023-01-30T17:20:30.497Z,3.87
2023-01-30T17:22:57.884Z,3.73
2023-01-30T17:25:24.401Z,3.64
2023-01-30T17:27:51.095Z,3.55
2023-01-30T17:30:17.608Z,3.58
2023-01-30T17:32:44.121Z,3.45
2023-01-30T17:35:10.511Z,3.40
2023-01-30T17:37:36.924Z,3.46
2023-01-30T17:40:03.411Z,3.59
2023-01-30T17:42:29.742Z,3.63
2023-01-30T17:44:56.100Z,3.77
2023-01-30T17:47:22.633Z,3.90
2023-01-30T17:49:48.993Z,3.90
2023-01-30T17:52:15.420Z,3.79
2023-01-30T17:54:42.034Z,3.73
2023-01-30T17:57:11.478Z,3.65
2023-01-30T17:59:37.843Z,3.67
2023-01-30T18:02:04.278Z,3.55
2023-01-30T18:04:30.647Z,3.58
2023-01-30T18:06:58.290Z,3.50
2023-01-30T18:09:24.667Z,3.50
2023-01-30T18:11:51.030Z,3.55
2023-01-30T18:14:17.341Z,3.58
2023-01-30T18:16:43.739Z,3.66
2023-01-30T18:19:10.268Z,3.78
2023-01-30T18:21:36.596Z,3.78
2023-01-30T18:24:03.008Z,3.78
2023-01-30T18:26:30.138Z,3.76
2023-01-30T18:28:56.473Z,3.73
2023-01-30T18:31:25.327Z,3.80
2023-01-30T18:33:52.270Z,3.81
2023-01-30T18:36:18.591Z,3.88
2023-01-30T18:38:44.936Z,3.95
2023-01-30T18:41:11.272Z,3.99
2023-01-30T18:43:37.603Z,4.08
2023-01-30T18:46:03.954Z,4.07
2023-01-30T18:48:30.261Z,4.10
2023-01-30T18:50:56.570Z,4.08
2023-01-30T18:53:22.886Z,4.04
2023-01-30T18:55:49.551Z,4.05
2023-01-30T18:58:16.173Z,4.07
2023-01-30T19:00:42.476Z,4.09
2023-01-30T19:03:08.776Z,4.14
2023-01-30T19:05:35.180Z,4.16
2023-01-30T19:08:01.474Z,4.16
2023-01-30T19:10:28.475Z,4.21
2023-01-30T19:13:13.751Z,4.27
2023-01-30T19:15:40.156Z,4.31
2023-01-30T19:18:06.539Z,4.37
2023-01-30T19:20:32.862Z,4.39
2023-01-30T19:22:59.900Z,4.36
2023-01-30T19:25:26.542Z,4.40
2023-01-30T19:27:55.055Z,4.32
2023-01-30T19:30:22.191Z,4.34
2023-01-30T19:32:49.025Z,4.33
2023-01-30T19:35:15.350Z,4.29
2023-01-30T19:37:41.696Z,4.29
2023-01-30T19:40:11.265Z,4.32
2023-01-30T19:42:40.377Z,4.34
2023-01-30T19:45:10.213Z,4.35
2023-01-30T19:47:36.533Z,4.28
2023-01-30T19:50:02.925Z,4.39
2023-01-30T19:52:29.292Z,4.35
2023-01-30T19:54:55.635Z,4.39
2023-01-30T19:57:22.146Z,4.41
2023-01-30T19:59:48.457Z,4.45
2023-01-30T20:02:14.878Z,4.48
2023-01-30T20:04:41.347Z,4.52
2023-01-30T20:07:07.651Z,4.52
2023-01-30T20:09:34.047Z,4.53
2023-01-30T20:12:00.407Z,4.55
2023-01-30T20:14:26.719Z,4.59
2023-01-30T20:16:53.047Z,4.66
2023-01-30T20:19:19.389Z,4.63
2023-01-30T20:21:49.220Z,4.67
2023-01-30T20:24:15.626Z,4.69
2023-01-30T20:26:42.161Z,4.65
2023-01-30T20:29:08.551Z,4.64
2023-01-30T20:31:35.092Z,4.68
2023-01-30T20:34:01.467Z,4.64
2023-01-30T20:36:27.881Z,4.61
2023-01-30T20:38:55.059Z,4.62
2023-01-30T20:41:21.430Z,4.63
2023-01-30T20:43:49.398Z,4.59
2023-01-30T20:46:15.757Z,4.60
2023-01-30T20:48:42.125Z,4.55
2023-01-30T20:51:08.631Z,4.56
2023-01-30T20:53:34.968Z,4.60
2023-01-30T20:56:01.756Z,4.60
2023-01-30T20:58:28.148Z,4.53
2023-01-30T21:00:54.514Z,4.47
2023-01-30T21:03:20.821Z,4.45
2023-01-30T21:05:47.293Z,4.42
2023-01-30T21:08:13.611Z,4.33
2023-01-30T21:10:46.594Z,4.34
2023-01-30T21:13:14.393Z,4.30
2023-01-30T21:15:40.734Z,4.26
2023-01-30T21:18:07.053Z,4.21
2023-01-30T21:20:33.425Z,4.18
2023-01-30T21:22:59.808Z,4.14
2023-01-30T21:25:26.111Z,4.23
2023-01-30T21:27:52.422Z,4.26
2023-01-30T21:30:18.724Z,4.31
2023-01-30T21:32:45.051Z,4.29
2023-01-30T21:35:11.349Z,4.33
2023-01-30T21:37:56.527Z,4.33
2023-01-30T21:40:41.554Z,4.37
2023-01-30T21:43:13.797Z,4.32
2023-01-30T21:45:40.182Z,4.34
2023-01-30T21:48:06.532Z,4.33
2023-01-30T21:50:32.893Z,4.24
2023-01-30T21:52:59.202Z,4.07
2023-01-30T21:55:25.851Z,3.90
2023-01-30T21:57:53.389Z,3.70
2023-01-30T22:00:19.769Z,3.70
2023-01-30T22:02:46.079Z,3.67
2023-01-30T22:05:12.445Z,3.72
2023-01-30T22:07:38.768Z,3.73
2023-01-30T22:10:05.091Z,3.76
2023-01-30T22:12:34.436Z,3.78
2023-01-30T22:15:00.762Z,3.78
2023-01-30T22:17:27.117Z,3.78
2023-01-30T22:19:54.002Z,3.77
2023-01-30T22:22:20.731Z,3.80
2023-01-30T22:24:47.033Z,3.81
2023-01-30T22:27:13.422Z,3.85
2023-01-30T22:29:39.733Z,3.83
2023-01-30T22:32:06.050Z,3.82
2023-01-30T22:34:34.284Z,3.89
2023-01-30T22:37:02.150Z,3.88
2023-01-30T22:39:28.453Z,3.91
2023-01-30T22:41:55.054Z,3.89
2023-01-30T22:44:21.379Z,3.95
2023-01-30T22:46:47.725Z,3.95
2023-01-30T22:49:14.109Z,3.94
2023-01-30T22:51:40.841Z,3.90
2023-01-30T22:54:07.318Z,3.93
2023-01-30T22:56:33.628Z,3.95
2023-01-30T22:58:59.977Z,3.88
2023-01-30T23:01:26.289Z,3.87
2023-01-30T23:03:52.663Z,3.85
2023-01-30T23:06:19.031Z,3.83
2023-01-30T23:08:45.401Z,3.81
2023-01-30T23:11:11.755Z,3.75
2023-01-30T23:13:38.173Z,3.71
2023-01-30T23:16:04.473Z,3.75
2023-01-30T23:19:00.375Z,3.82
2023-01-30T23:21:26.680Z,3.88
2023-01-30T23:23:53.285Z,3.88
2023-01-30T23:26:19.620Z,3.90
2023-01-30T23:28:45.961Z,3.95
2023-01-30T23:31:12.294Z,3.98
2023-01-30T23:33:38.912Z,3.92
2023-01-30T23:36:05.287Z,3.89
2023-01-30T23:38:31.644Z,3.85
2023-01-30T23:40:57.967Z,3.76
2023-01-30T23:43:24.302Z,3.76
2023-01-30T23:45:54.031Z,3.58
2023-01-30T23:48:20.490Z,3.45
2023-01-30T23:50:46.804Z,3.43
2023-01-30T23:53:13.116Z,3.40
2023-01-30T23:55:39.876Z,3.41
2023-01-30T23:58:06.285Z,3.36
